createdAt,value
2022-08-07T00:00:36.495Z,23.46
2022-08-07T00:03:08.738Z,23.47
2022-08-07T00:05:37.048Z,23.47
2022-08-07T00:08:04.845Z,23.47
2022-08-07T00:10:31.892Z,23.49
2022-08-07T00:13:02.138Z,23.49
2022-08-07T00:15:38.188Z,23.47
2022-08-07T00:18:18.852Z,23.46
2022-08-07T00:20:46.448Z,23.43
2022-08-07T00:23:15.006Z,23.39
2022-08-07T00:25:52.564Z,23.37
2022-08-07T00:28:33.471Z,23.32
2022-08-07T00:31:01.899Z,23.27
2022-08-07T00:33:33.739Z,23.21
2022-08-07T00:36:01.180Z,23.15
2022-08-07T00:38:31.733Z,23.09
2022-08-07T00:41:00.723Z,22.99
2022-08-07T00:44:01.046Z,22.97
2022-08-07T00:46:15.077Z,22.98
2022-08-07T00:48:42.575Z,22.99
2022-08-07T00:51:10.611Z,22.97
2022-08-07T00:53:39.138Z,22.98
2022-08-07T00:56:17.549Z,22.96
2022-08-07T00:58:47.467Z,22.89
2022-08-07T01:01:17.993Z,22.87
2022-08-07T01:03:56.119Z,22.73
2022-08-07T01:06:30.117Z,22.60
2022-08-07T01:08:58.521Z,22.67
2022-08-07T01:12:09.942Z,22.70
2022-08-07T01:14:15.546Z,22.45
2022-08-07T01:16:47.244Z,22.31
2022-08-07T01:19:21.044Z,22.28
2022-08-07T01:21:53.494Z,22.34
2022-08-07T01:24:25.945Z,22.35
2022-08-07T01:26:54.208Z,22.40
2022-08-07T01:29:23.286Z,22.41
2022-08-07T01:31:52.376Z,22.36
2022-08-07T01:34:20.370Z,22.35
2022-08-07T01:36:58.934Z,22.36
2022-08-07T01:39:40.591Z,22.46
2022-08-07T01:42:38.025Z,22.52
2022-08-07T01:45:09.977Z,22.40
2022-08-07T01:48:17.891Z,22.40
2022-08-07T01:50:31.267Z,22.43
2022-08-07T01:52:59.058Z,22.43
2022-08-07T01:55:34.501Z,22.48
2022-08-07T01:58:06.705Z,22.54
2022-08-07T02:00:51.482Z,22.52
2022-08-07T02:03:32.049Z,22.46
2022-08-07T02:06:31.838Z,22.46
2022-08-07T02:09:04.663Z,22.43
2022-08-07T02:12:03.861Z,22.41
2022-08-07T02:14:36.074Z,22.43
2022-08-07T02:17:06.201Z,22.43
2022-08-07T02:20:04.109Z,22.42
2022-08-07T02:22:25.917Z,22.37
2022-08-07T02:24:54.839Z,22.28
2022-08-07T02:29:54.499Z,21.56
2022-08-07T02:32:29.973Z,21.20
2022-08-07T02:34:58.294Z,20.98
2022-08-07T02:37:28.364Z,20.84
2022-08-07T02:40:29.948Z,20.74
2022-08-07T02:42:54.897Z,20.71
2022-08-07T02:45:58.290Z,20.81
2022-08-07T02:48:15.307Z,21.00
2022-08-07T02:50:45.131Z,21.15
2022-08-07T02:53:16.706Z,21.27
2022-08-07T02:56:02.627Z,21.40
2022-08-07T02:58:34.901Z,21.55
2022-08-07T03:01:04.525Z,21.62
2022-08-07T03:03:50.130Z,21.69
2022-08-07T03:06:26.261Z,21.64
2022-08-07T03:09:01.997Z,21.65
2022-08-07T03:11:32.910Z,21.65
2022-08-07T03:14:07.198Z,21.59
2022-08-07T03:16:34.925Z,21.59
2022-08-07T03:19:03.055Z,21.45
2022-08-07T03:21:33.006Z,21.32
2022-08-07T03:24:21.129Z,21.17
2022-08-07T03:26:58.209Z,21.02
2022-08-07T03:29:33.711Z,20.97
2022-08-07T03:32:05.496Z,20.93
2022-08-07T03:34:39.207Z,20.89
2022-08-07T03:37:12.449Z,20.86
2022-08-07T03:39:59.266Z,20.87
2022-08-07T03:42:30.597Z,20.90
2022-08-07T03:44:59.644Z,20.98
2022-08-07T03:47:29.572Z,21.13
2022-08-07T03:50:19.637Z,21.17
2022-08-07T03:52:51.667Z,21.15
2022-08-07T03:55:19.593Z,21.20
2022-08-07T03:58:33.099Z,21.36
2022-08-07T04:00:38.689Z,21.58
2022-08-07T04:03:14.085Z,21.72
2022-08-07T04:05:42.564Z,21.81
2022-08-07T04:08:20.955Z,21.91
2022-08-07T04:10:54.501Z,22.01
2022-08-07T04:14:10.952Z,22.06
2022-08-07T04:16:31.326Z,22.08
2022-08-07T04:19:04.361Z,22.05
2022-08-07T04:21:59.579Z,22.04
2022-08-07T04:24:39.148Z,22.03
2022-08-07T04:27:20.364Z,22.06
2022-08-07T04:29:58.400Z,22.12
2022-08-07T04:32:35.829Z,22.19
2022-08-07T04:35:06.240Z,22.24
2022-08-07T04:38:00.967Z,22.31
2022-08-07T04:40:29.727Z,22.39
2022-08-07T04:43:01.999Z,22.44
2022-08-07T04:45:57.543Z,22.44
2022-08-07T04:48:35.123Z,22.36
2022-08-07T04:51:09.125Z,22.26
2022-08-07T04:54:01.471Z,22.21
2022-08-07T04:58:10.347Z,22.21
2022-08-07T05:00:19.052Z,22.20
2022-08-07T05:04:00.623Z,22.24
2022-08-07T05:06:28.089Z,22.27
2022-08-07T05:09:02.483Z,22.42
2022-08-07T05:11:57.560Z,22.56
2022-08-07T05:14:55.861Z,22.74
2022-08-07T05:17:52.869Z,22.94
2022-08-07T05:20:09.627Z,23.09
2022-08-07T05:22:38.913Z,23.21
2022-08-07T05:25:08.620Z,23.29
2022-08-07T05:28:03.526Z,23.37
2022-08-07T05:30:32.406Z,23.44
2022-08-07T05:33:03.340Z,23.55
2022-08-07T05:35:41.882Z,23.71
2022-08-07T05:38:12.727Z,23.83
2022-08-07T05:41:00.114Z,23.91
2022-08-07T05:43:49.477Z,23.95
2022-08-07T05:46:15.718Z,24.00
2022-08-07T05:48:58.189Z,23.98
2022-08-07T05:51:33.174Z,24.11
2022-08-07T05:54:09.710Z,24.22
2022-08-07T05:56:51.471Z,24.45
2022-08-07T05:59:19.386Z,24.54
2022-08-07T06:01:51.811Z,24.65
2022-08-07T06:04:20.956Z,24.81
2022-08-07T06:06:56.684Z,24.88
2022-08-07T06:10:03.801Z,25.02
2022-08-07T06:12:18.022Z,25.03
2022-08-07T06:14:49.499Z,24.98
2022-08-07T06:17:19.464Z,25.03
2022-08-07T06:20:03.716Z,25.09
2022-08-07T06:22:38.876Z,25.12
2022-08-07T06:25:25.062Z,25.18
2022-08-07T06:28:02.966Z,25.23
2022-08-07T06:30:37.415Z,25.30
2022-08-07T06:33:16.758Z,25.25
2022-08-07T06:36:12.427Z,25.40
2022-08-07T06:38:38.343Z,25.58
2022-08-07T06:41:09.706Z,25.62
2022-08-07T06:43:46.439Z,25.76
2022-08-07T06:46:35.042Z,25.81
2022-08-07T06:49:04.340Z,25.91
2022-08-07T06:51:33.973Z,25.93
2022-08-07T06:55:27.358Z,25.96
2022-08-07T06:56:54.058Z,26.04
2022-08-07T07:00:12.871Z,26.12
2022-08-07T07:02:49.018Z,26.22
2022-08-07T07:05:07.970Z,26.22
2022-08-07T07:07:59.963Z,26.26
2022-08-07T07:10:28.620Z,26.41
2022-08-07T07:12:58.498Z,26.61
2022-08-07T07:15:35.770Z,26.70
2022-08-07T07:18:08.957Z,26.78
2022-08-07T07:20:41.996Z,26.82
2022-08-07T07:24:09.661Z,26.89
2022-08-07T07:26:34.758Z,26.91
2022-08-07T07:29:57.101Z,26.95
2022-08-07T07:31:44.413Z,27.02
2022-08-07T07:34:18.887Z,27.08
2022-08-07T07:36:48.031Z,27.06
2022-08-07T07:39:23.025Z,27.16
2022-08-07T07:42:13.461Z,27.21
2022-08-07T07:44:42.393Z,27.35
2022-08-07T07:47:23.103Z,27.55
2022-08-07T07:50:33.285Z,27.47
2022-08-07T07:52:43.934Z,27.53
2022-08-07T07:55:14.588Z,27.52
2022-08-07T07:57:51.625Z,27.72
2022-08-07T08:00:29.723Z,27.59
2022-08-07T08:03:16.707Z,27.61
2022-08-07T08:05:56.655Z,27.76
2022-08-07T08:08:34.960Z,27.84
2022-08-07T08:11:09.194Z,28.00
2022-08-07T08:13:53.714Z,28.09
2022-08-07T08:16:24.993Z,28.20
2022-08-07T08:18:55.151Z,28.25
2022-08-07T08:22:00.478Z,28.35
2022-08-07T08:24:48.161Z,28.64
2022-08-07T08:27:33.538Z,28.72
2022-08-07T08:30:04.054Z,28.65
2022-08-07T08:32:38.620Z,28.65
2022-08-07T08:35:08.391Z,28.74
2022-08-07T08:37:59.888Z,28.89
2022-08-07T08:40:34.213Z,28.99
2022-08-07T08:43:10.301Z,28.80
2022-08-07T08:46:00.726Z,28.55
2022-08-07T08:48:36.026Z,28.23
2022-08-07T08:51:14.732Z,28.42
2022-08-07T08:53:56.781Z,28.60
2022-08-07T08:56:26.363Z,28.71
2022-08-07T08:59:13.611Z,28.75
2022-08-07T09:01:49.438Z,28.80
2022-08-07T09:04:25.922Z,28.80
2022-08-07T09:07:24.396Z,28.77
2022-08-07T09:10:21.027Z,28.65
2022-08-07T09:13:11.067Z,28.74
2022-08-07T09:16:22.203Z,28.75
2022-08-07T09:18:58.642Z,28.81
2022-08-07T09:22:22.358Z,29.06
2022-08-07T09:25:00.513Z,29.04
2022-08-07T09:28:05.293Z,29.25
2022-08-07T09:31:15.869Z,29.63
2022-08-07T09:34:00.514Z,29.93
2022-08-07T09:36:46.901Z,30.00
2022-08-07T09:39:55.024Z,30.20
2022-08-07T09:42:22.999Z,30.23
2022-08-07T09:47:51.426Z,30.46
2022-08-07T09:48:30.032Z,30.38
2022-08-07T09:52:09.829Z,30.63
2022-08-07T09:54:30.080Z,31.03
2022-08-07T09:57:23.790Z,31.25
2022-08-07T10:00:14.636Z,31.52
2022-08-07T10:03:08.477Z,31.84
2022-08-07T10:06:12.318Z,31.91
2022-08-07T10:09:03.277Z,32.12
2022-08-07T10:12:00.075Z,32.11
2022-08-07T10:14:55.506Z,32.00
2022-08-07T10:18:00.868Z,31.96
2022-08-07T10:20:44.494Z,31.59
2022-08-07T10:24:05.881Z,31.34
2022-08-07T10:26:39.903Z,31.28
2022-08-07T10:29:30.318Z,31.55
2022-08-07T10:32:51.419Z,31.58
2022-08-07T10:35:55.229Z,31.33
2022-08-07T10:38:50.194Z,31.26
2022-08-07T10:41:47.086Z,31.64
2022-08-07T10:44:37.886Z,32.26
2022-08-07T10:47:14.146Z,32.44
2022-08-07T10:49:51.097Z,32.28
2022-08-07T10:52:36.883Z,32.11
2022-08-07T10:55:38.511Z,32.44
2022-08-07T10:58:13.776Z,32.45
2022-08-07T11:00:55.892Z,32.74
2022-08-07T11:03:52.786Z,32.71
2022-08-07T11:06:48.010Z,32.84
2022-08-07T11:10:08.672Z,33.16
2022-08-07T11:12:31.494Z,33.45
2022-08-07T11:15:02.931Z,33.76
2022-08-07T11:17:43.637Z,33.95
2022-08-07T11:20:30.399Z,34.16
2022-08-07T11:23:30.401Z,34.33
2022-08-07T11:26:26.693Z,34.36
2022-08-07T11:28:58.564Z,34.79
2022-08-07T11:31:35.103Z,35.52
2022-08-07T11:34:06.661Z,35.81
2022-08-07T11:36:40.924Z,35.18
2022-08-07T11:39:58.960Z,35.06
2022-08-07T11:42:19.226Z,34.86
2022-08-07T11:45:04.757Z,34.52
2022-08-07T11:47:53.636Z,34.05
2022-08-07T11:50:57.213Z,34.14
2022-08-07T11:54:01.938Z,34.57
2022-08-07T11:56:52.427Z,34.89
2022-08-07T12:00:11.064Z,35.25
2022-08-07T12:03:08.147Z,35.90
2022-08-07T12:06:36.880Z,36.05
2022-08-07T12:09:16.355Z,36.44
2022-08-07T12:12:10.899Z,36.07
2022-08-07T12:15:01.525Z,36.11
2022-08-07T12:17:55.901Z,36.36
2022-08-07T12:20:50.011Z,35.79
2022-08-07T12:24:05.134Z,35.13
2022-08-07T12:26:30.944Z,34.70
2022-08-07T12:29:09.466Z,34.52
2022-08-07T12:31:52.763Z,34.81
2022-08-07T12:34:30.383Z,34.94
2022-08-07T12:36:58.798Z,34.86
2022-08-07T12:39:42.916Z,34.83
2022-08-07T12:42:13.505Z,34.62
2022-08-07T12:44:45.919Z,34.53
2022-08-07T12:47:32.374Z,34.23
2022-08-07T12:50:34.459Z,34.12
2022-08-07T12:53:23.297Z,34.43
2022-08-07T12:56:09.396Z,34.82
2022-08-07T12:58:39.481Z,35.80
2022-08-07T13:01:08.985Z,35.78
2022-08-07T13:04:02.932Z,35.53
2022-08-07T13:07:00.659Z,35.43
2022-08-07T13:10:19.924Z,35.05
2022-08-07T13:13:12.738Z,35.28
2022-08-07T13:16:02.194Z,35.39
2022-08-07T13:18:58.615Z,35.49
2022-08-07T13:21:51.072Z,35.73
2022-08-07T13:24:52.115Z,36.09
2022-08-07T13:28:11.704Z,36.71
2022-08-07T13:30:40.145Z,37.03
2022-08-07T13:34:34.251Z,37.59
2022-08-07T13:36:26.209Z,37.85
2022-08-07T13:39:11.164Z,37.98
2022-08-07T13:41:47.388Z,38.02
2022-08-07T13:44:18.366Z,38.11
2022-08-07T13:46:57.057Z,37.81
2022-08-07T13:50:35.277Z,37.56
2022-08-07T13:52:31.697Z,37.49
2022-08-07T13:55:00.664Z,37.93
2022-08-07T13:57:32.132Z,38.30
2022-08-07T14:00:06.899Z,38.30
2022-08-07T14:02:51.162Z,37.83
2022-08-07T14:05:23.760Z,37.13
2022-08-07T14:08:00.461Z,36.35
2022-08-07T14:10:42.124Z,35.65
2022-08-07T14:13:16.567Z,34.26
2022-08-07T14:15:52.350Z,33.43
2022-08-07T14:18:30.592Z,32.85
2022-08-07T14:22:02.234Z,32.12
2022-08-07T14:24:13.934Z,31.68
2022-08-07T14:26:50.416Z,31.55
2022-08-07T14:30:05.288Z,31.35
2022-08-07T14:32:26.991Z,31.32
2022-08-07T14:34:54.806Z,31.63
2022-08-07T14:37:38.964Z,31.77
2022-08-07T14:40:15.517Z,32.03
2022-08-07T14:45:46.724Z,32.21
2022-08-07T14:48:19.903Z,32.37
2022-08-07T14:50:52.070Z,32.60
2022-08-07T14:54:03.757Z,33.01
2022-08-07T14:56:13.157Z,33.06
2022-08-07T15:01:42.958Z,32.93
2022-08-07T15:04:19.126Z,32.80
2022-08-07T15:09:57.515Z,32.71
2022-08-07T15:12:30.511Z,32.92
2022-08-07T15:17:56.352Z,33.60
2022-08-07T15:20:33.292Z,33.88
2022-08-07T15:25:53.680Z,34.89
2022-08-07T15:28:38.638Z,35.15
2022-08-07T15:31:12.627Z,35.53
2022-08-07T15:34:00.944Z,35.78
2022-08-07T15:37:03.061Z,35.79
2022-08-07T15:39:16.312Z,35.30
2022-08-07T15:42:44.103Z,35.23
2022-08-07T15:44:57.127Z,35.09
2022-08-07T15:48:00.049Z,35.41
2022-08-07T15:51:01.327Z,35.68
2022-08-07T15:53:14.668Z,36.09
2022-08-07T15:55:53.535Z,36.66
2022-08-07T15:58:37.934Z,37.19
2022-08-07T16:01:06.908Z,37.33
2022-08-07T16:03:46.371Z,37.65
2022-08-07T16:06:16.461Z,37.99
2022-08-07T16:08:45.455Z,38.16
2022-08-07T16:11:32.765Z,38.76
2022-08-07T16:14:17.244Z,39.34
2022-08-07T16:17:14.911Z,40.12
2022-08-07T16:20:01.617Z,41.05
2022-08-07T16:22:54.914Z,41.32
2022-08-07T16:25:55.393Z,41.10
2022-08-07T16:30:07.633Z,39.43
2022-08-07T16:31:57.844Z,37.51
2022-08-07T16:34:57.436Z,36.39
2022-08-07T16:38:03.369Z,35.34
2022-08-07T16:41:02.293Z,34.64
2022-08-07T16:44:02.507Z,33.96
2022-08-07T16:47:13.032Z,32.99
2022-08-07T16:50:28.673Z,32.10
2022-08-07T16:53:14.924Z,31.42
2022-08-07T16:56:04.589Z,30.78
2022-08-07T16:59:14.740Z,30.42
2022-08-07T17:01:51.572Z,29.77
2022-08-07T17:04:37.023Z,29.53
2022-08-07T17:07:28.558Z,29.14
2022-08-07T17:10:32.558Z,28.88
2022-08-07T17:13:20.485Z,28.69
2022-08-07T17:16:16.726Z,28.57
2022-08-07T17:19:04.830Z,28.46
2022-08-07T17:21:51.231Z,28.53
2022-08-07T17:24:37.662Z,28.26
2022-08-07T17:27:10.344Z,27.99
2022-08-07T17:30:19.891Z,27.96
2022-08-07T17:33:02.686Z,27.93
2022-08-07T17:35:57.354Z,27.86
2022-08-07T17:38:35.081Z,27.82
2022-08-07T17:42:00.874Z,27.85
2022-08-07T17:44:02.670Z,27.91
2022-08-07T17:46:37.051Z,27.82
2022-08-07T17:49:44.732Z,27.79
2022-08-07T17:52:32.796Z,27.72
2022-08-07T17:55:54.132Z,27.70
2022-08-07T17:58:46.207Z,27.62
2022-08-07T18:01:21.860Z,27.49
2022-08-07T18:04:16.526Z,27.48
2022-08-07T18:07:22.547Z,27.41
2022-08-07T18:10:05.794Z,27.32
2022-08-07T18:12:53.041Z,27.23
2022-08-07T18:15:32.571Z,27.17
2022-08-07T18:18:45.266Z,27.12
2022-08-07T18:21:37.277Z,27.10
2022-08-07T18:24:11.431Z,27.03
2022-08-07T18:27:38.526Z,26.72
2022-08-07T18:30:32.872Z,26.45
2022-08-07T18:33:24.451Z,26.28
2022-08-07T18:36:14.264Z,26.24
2022-08-07T18:40:09.006Z,26.24
2022-08-07T18:45:44.399Z,26.25
2022-08-07T18:50:53.724Z,25.83
2022-08-07T18:56:58.283Z,25.69
2022-08-07T19:02:57.291Z,25.60
2022-08-07T19:06:03.954Z,25.57
2022-08-07T19:08:30.402Z,25.51
2022-08-07T19:11:35.114Z,25.47
2022-08-07T19:14:08.086Z,25.44
2022-08-07T19:17:06.089Z,25.48
2022-08-07T19:19:53.654Z,25.53
2022-08-07T19:22:44.854Z,25.48
2022-08-07T19:26:21.876Z,25.33
2022-08-07T19:28:30.871Z,25.27
2022-08-07T19:31:37.280Z,25.13
2022-08-07T19:33:43.373Z,25.10
2022-08-07T19:36:27.757Z,25.14
2022-08-07T19:38:58.513Z,25.21
2022-08-07T19:41:39.364Z,25.27
2022-08-07T19:44:21.770Z,25.38
2022-08-07T19:46:57.580Z,25.41
2022-08-07T19:49:57.459Z,25.37
2022-08-07T19:52:28.537Z,25.36
2022-08-07T19:54:58.445Z,25.40
2022-08-07T19:58:01.619Z,25.37
2022-08-07T20:00:29.749Z,25.36
2022-08-07T20:03:00.815Z,25.38
2022-08-07T20:06:00.571Z,25.37
2022-08-07T20:08:23.033Z,25.28
2022-08-07T20:10:55.681Z,25.14
2022-08-07T20:13:26.944Z,25.11
2022-08-07T20:15:57.863Z,25.05
2022-08-07T20:18:32.794Z,24.94
2022-08-07T20:21:02.520Z,24.87
2022-08-07T20:23:40.885Z,24.89
2022-08-07T20:26:10.765Z,24.85
2022-08-07T20:28:39.007Z,24.87
2022-08-07T20:31:21.095Z,24.82
2022-08-07T20:33:56.717Z,24.76
2022-08-07T20:36:26.829Z,24.72
2022-08-07T20:39:00.000Z,24.68
2022-08-07T20:41:34.124Z,24.64
2022-08-07T20:44:12.388Z,24.63
2022-08-07T20:46:44.357Z,24.59
2022-08-07T20:50:00.247Z,24.53
2022-08-07T20:51:59.442Z,24.42
2022-08-07T20:54:29.299Z,24.33
2022-08-07T20:57:00.037Z,24.10
2022-08-07T21:00:07.669Z,23.73
2022-08-07T21:02:39.064Z,23.43
2022-08-07T21:05:10.240Z,23.17
2022-08-07T21:07:49.601Z,22.98
2022-08-07T21:10:29.665Z,22.89
2022-08-07T21:12:59.678Z,22.88
2022-08-07T21:15:48.013Z,22.88
2022-08-07T21:18:25.810Z,22.78
2022-08-07T21:20:57.286Z,22.69
2022-08-07T21:23:42.901Z,22.59
2022-08-07T21:26:31.438Z,22.55
2022-08-07T21:29:18.417Z,22.44
2022-08-07T21:32:46.685Z,22.45
2022-08-07T21:35:09.379Z,22.35
2022-08-07T21:37:58.210Z,22.31
2022-08-07T21:40:46.827Z,22.26
2022-08-07T21:43:23.019Z,22.15
2022-08-07T21:46:08.413Z,22.16
2022-08-07T21:49:00.970Z,22.19
2022-08-07T21:51:51.448Z,22.23
2022-08-07T21:54:38.251Z,22.17
2022-08-07T21:57:44.529Z,22.12
2022-08-07T22:00:20.548Z,22.05
2022-08-07T22:03:00.242Z,21.91
2022-08-07T22:05:44.419Z,21.80
2022-08-07T22:08:14.553Z,21.80
2022-08-07T22:10:49.770Z,21.80
2022-08-07T22:13:17.496Z,21.77
2022-08-07T22:16:38.346Z,21.78
2022-08-07T22:18:59.359Z,21.70
2022-08-07T22:22:04.662Z,21.76
2022-08-07T22:24:37.058Z,21.77
2022-08-07T22:27:51.171Z,21.80
2022-08-07T22:30:18.479Z,21.79
2022-08-07T22:32:55.789Z,21.75
2022-08-07T22:35:23.487Z,21.60
2022-08-07T22:38:25.936Z,21.49
2022-08-07T22:41:07.424Z,21.48
2022-08-07T22:43:44.770Z,21.49
2022-08-07T22:47:06.311Z,21.49
2022-08-07T22:49:54.139Z,21.47
2022-08-07T22:52:39.734Z,21.52
2022-08-07T22:55:23.165Z,21.49
2022-08-07T22:57:59.074Z,21.52
2022-08-07T23:00:30.809Z,21.61
2022-08-07T23:03:15.946Z,21.63
2022-08-07T23:06:07.812Z,21.59
2022-08-07T23:10:01.058Z,21.51
2022-08-07T23:12:06.620Z,21.41
2022-08-07T23:15:02.822Z,21.37
2022-08-07T23:17:46.766Z,21.20
2022-08-07T23:20:52.334Z,21.18
2022-08-07T23:24:06.216Z,21.15
2022-08-07T23:26:56.969Z,21.14
2022-08-07T23:30:39.213Z,21.13
2022-08-07T23:34:20.042Z,21.13
2022-08-07T23:36:02.953Z,21.10
2022-08-07T23:38:54.880Z,21.16
2022-08-07T23:42:04.289Z,21.09
2022-08-07T23:45:15.211Z,21.03
2022-08-07T23:47:52.145Z,21.11
2022-08-07T23:50:33.539Z,21.16
2022-08-07T23:53:08.716Z,21.15
2022-08-07T23:55:58.237Z,21.10
2022-08-07T23:58:51.142Z,21.06
